createdAt,value
2022-10-04T00:00:38.718Z,5.40
2022-10-04T00:04:23.596Z,4.50
2022-10-04T00:08:24.256Z,4.35
2022-10-04T00:12:06.889Z,6.35
2022-10-04T00:15:50.845Z,6.18
2022-10-04T00:19:45.220Z,4.55
2022-10-04T00:23:40.918Z,5.35
2022-10-04T00:27:25.435Z,6.15
2022-10-04T00:31:08.982Z,6.13
2022-10-04T00:34:52.944Z,6.03
2022-10-04T00:38:34.859Z,7.78
2022-10-04T00:42:38.341Z,4.20
2022-10-04T00:46:24.293Z,5.38
2022-10-04T00:50:21.460Z,5.43
2022-10-04T00:54:26.756Z,6.05
2022-10-04T00:58:19.146Z,6.05
2022-10-04T01:02:18.905Z,5.72
2022-10-04T01:06:05.548Z,6.00
2022-10-04T01:09:55.826Z,5.45
2022-10-04T01:13:39.730Z,5.80
2022-10-04T01:17:22.565Z,9.82
2022-10-04T01:21:21.164Z,6.43
2022-10-04T01:25:03.618Z,8.48
2022-10-04T01:28:45.637Z,5.65
2022-10-04T01:32:27.746Z,8.02
2022-10-04T01:36:09.722Z,7.18
2022-10-04T01:39:51.773Z,5.43
2022-10-04T01:43:39.214Z,6.28
2022-10-04T01:47:31.348Z,5.80
2022-10-04T01:51:26.919Z,7.20
2022-10-04T01:55:26.093Z,7.63
2022-10-04T01:59:15.596Z,4.20
2022-10-04T02:03:26.618Z,5.75
2022-10-04T02:07:14.469Z,5.63
2022-10-04T02:10:57.295Z,7.85
2022-10-04T02:14:53.310Z,5.10
2022-10-04T02:18:43.605Z,6.35
2022-10-04T02:22:26.499Z,5.10
2022-10-04T02:26:10.157Z,6.07
2022-10-04T02:29:52.262Z,4.20
2022-10-04T02:33:39.218Z,4.63
2022-10-04T02:37:24.059Z,2.63
2022-10-04T02:41:13.638Z,6.00
2022-10-04T02:45:21.856Z,4.35
2022-10-04T02:49:14.848Z,3.50
2022-10-04T02:53:15.822Z,5.63
2022-10-04T02:56:58.459Z,5.55
2022-10-04T03:00:52.038Z,9.18
2022-10-04T03:04:41.164Z,5.53
2022-10-04T03:08:23.160Z,5.13
2022-10-04T03:12:06.096Z,7.80
2022-10-04T03:15:50.286Z,3.63
2022-10-04T03:19:34.333Z,6.93
2022-10-04T03:23:19.221Z,2.65
2022-10-04T03:27:05.520Z,3.20
2022-10-04T03:30:48.470Z,3.30
2022-10-04T03:34:41.854Z,3.20
2022-10-04T03:38:26.522Z,2.95
2022-10-04T03:42:15.967Z,2.72
2022-10-04T03:45:59.537Z,4.38
2022-10-04T03:49:45.277Z,2.17
2022-10-04T03:53:43.466Z,2.45
2022-10-04T03:57:25.877Z,4.38
2022-10-04T04:01:37.842Z,3.78
2022-10-04T04:05:40.074Z,1.63
2022-10-04T04:10:03.850Z,2.25
2022-10-04T04:13:57.010Z,2.67
2022-10-04T04:17:52.372Z,4.25
2022-10-04T04:21:34.495Z,2.90
2022-10-04T04:25:17.028Z,4.15
2022-10-04T04:29:22.534Z,3.47
2022-10-04T04:33:12.573Z,2.92
2022-10-04T04:37:02.130Z,2.58
2022-10-04T04:40:44.686Z,2.90
2022-10-04T04:44:26.849Z,4.07
2022-10-04T04:48:12.845Z,4.15
2022-10-04T04:51:55.373Z,2.60
2022-10-04T04:56:02.754Z,3.27
2022-10-04T04:59:49.875Z,2.47
2022-10-04T05:03:33.975Z,1.92
2022-10-04T05:07:19.775Z,5.78
2022-10-04T05:11:08.924Z,3.35
2022-10-04T05:14:54.598Z,4.67
2022-10-04T05:18:36.654Z,4.10
2022-10-04T05:22:22.494Z,4.68
2022-10-04T05:26:10.309Z,3.45
2022-10-04T05:30:08.395Z,3.42
2022-10-04T05:33:52.389Z,3.47
2022-10-04T05:38:07.948Z,4.00
2022-10-04T05:41:56.662Z,3.70
2022-10-04T05:45:38.577Z,4.20
2022-10-04T05:49:22.339Z,5.28
2022-10-04T05:53:10.306Z,2.85
2022-10-04T05:57:16.539Z,3.28
2022-10-04T06:01:04.164Z,5.15
2022-10-04T06:04:53.388Z,5.30
2022-10-04T06:09:05.204Z,5.07
2022-10-04T06:12:50.463Z,7.27
2022-10-04T06:16:53.167Z,4.90
2022-10-04T06:21:17.057Z,6.35
2022-10-04T06:25:26.486Z,7.10
2022-10-04T06:29:14.848Z,7.30
2022-10-04T06:33:15.783Z,6.10
2022-10-04T06:37:27.168Z,5.20
2022-10-04T06:41:17.985Z,3.93
2022-10-04T06:45:29.066Z,4.50
2022-10-04T06:49:29.156Z,6.33
2022-10-04T06:53:16.951Z,4.93
2022-10-04T06:57:39.131Z,3.10
2022-10-04T07:01:52.130Z,2.78
2022-10-04T07:05:48.301Z,5.28
2022-10-04T07:09:30.383Z,4.47
2022-10-04T07:13:18.782Z,4.25
2022-10-04T07:17:12.475Z,4.80
2022-10-04T07:21:09.784Z,5.10
2022-10-04T07:24:51.692Z,10.13
2022-10-04T07:28:59.695Z,5.47
2022-10-04T07:32:46.961Z,5.45
2022-10-04T07:36:39.956Z,8.35
2022-10-04T07:40:37.119Z,5.22
2022-10-04T07:44:35.279Z,6.00
2022-10-04T07:48:23.558Z,7.93
2022-10-04T07:52:08.353Z,5.88
2022-10-04T07:56:08.363Z,8.43
2022-10-04T07:59:56.478Z,5.20
2022-10-04T08:03:41.022Z,8.57
2022-10-04T08:07:47.184Z,9.73
2022-10-04T08:11:38.007Z,6.20
2022-10-04T08:15:43.599Z,5.82
2022-10-04T08:19:25.589Z,4.75
2022-10-04T08:23:20.869Z,5.10
2022-10-04T08:27:21.391Z,5.00
2022-10-04T08:31:09.483Z,6.43
2022-10-04T08:34:52.173Z,5.07
2022-10-04T08:38:50.621Z,6.10
2022-10-04T08:43:13.774Z,4.47
2022-10-04T08:47:22.267Z,4.63
2022-10-04T08:51:23.165Z,6.03
2022-10-04T08:55:42.892Z,3.95
2022-10-04T08:59:36.777Z,3.40
2022-10-04T09:03:42.755Z,3.17
2022-10-04T09:07:48.661Z,3.97
2022-10-04T09:12:07.877Z,3.47
2022-10-04T09:15:56.435Z,7.17
2022-10-04T09:19:53.910Z,3.92
2022-10-04T09:24:05.282Z,3.10
2022-10-04T09:28:12.682Z,2.55
2022-10-04T09:32:07.669Z,4.28
2022-10-04T09:36:12.513Z,5.05
2022-10-04T09:40:17.468Z,4.50
2022-10-04T09:44:13.203Z,5.82
2022-10-04T09:48:18.380Z,3.30
2022-10-04T09:52:15.702Z,7.25
2022-10-04T09:56:16.304Z,4.07
2022-10-04T10:00:23.462Z,3.90
2022-10-04T10:04:23.414Z,1.83
2022-10-04T10:08:17.224Z,1.73
2022-10-04T10:12:46.817Z,2.28
2022-10-04T10:16:53.532Z,1.80
2022-10-04T10:20:58.182Z,2.72
2022-10-04T10:25:01.903Z,3.05
2022-10-04T10:28:46.596Z,1.60
2022-10-04T10:33:04.151Z,2.38
2022-10-04T10:36:52.345Z,1.70
2022-10-04T10:41:06.757Z,2.53
2022-10-04T10:45:12.789Z,3.75
2022-10-04T10:49:46.082Z,1.65
2022-10-04T10:53:49.652Z,2.60
2022-10-04T10:57:56.570Z,2.47
2022-10-04T11:02:16.242Z,3.00
2022-10-04T11:06:01.537Z,2.17
2022-10-04T11:10:09.926Z,2.47
2022-10-04T11:14:13.710Z,1.00
2022-10-04T11:18:13.224Z,4.22
2022-10-04T11:22:19.903Z,4.65
2022-10-04T11:26:28.512Z,1.85
2022-10-04T11:30:51.504Z,4.70
2022-10-04T11:35:08.292Z,2.60
2022-10-04T11:39:15.435Z,4.15
2022-10-04T11:43:36.386Z,3.67
2022-10-04T11:47:49.584Z,3.58
2022-10-04T11:51:48.154Z,2.88
2022-10-04T11:55:41.688Z,3.65
2022-10-04T11:59:47.041Z,4.82
2022-10-04T12:03:47.575Z,5.18
2022-10-04T12:07:38.776Z,4.80
2022-10-04T12:11:56.348Z,5.97
2022-10-04T12:16:19.451Z,5.63
2022-10-04T12:20:29.185Z,6.18
2022-10-04T12:24:42.043Z,6.13
2022-10-04T12:28:41.065Z,4.70
2022-10-04T12:32:58.128Z,3.70
2022-10-04T12:37:05.789Z,5.10
2022-10-04T12:41:12.178Z,3.38
2022-10-04T12:45:48.507Z,4.82
2022-10-04T12:50:02.621Z,4.27
2022-10-04T12:54:03.453Z,3.83
2022-10-04T12:58:08.043Z,5.13
2022-10-04T13:01:58.870Z,5.25
2022-10-04T13:06:12.800Z,7.22
2022-10-04T13:10:24.268Z,6.18
2022-10-04T13:14:28.649Z,4.72
2022-10-04T13:18:30.429Z,5.07
2022-10-04T13:22:32.109Z,3.60
2022-10-04T13:26:46.730Z,6.82
2022-10-04T13:31:01.228Z,6.35
2022-10-04T13:35:14.601Z,4.88
2022-10-04T13:39:21.115Z,7.00
2022-10-04T13:47:06.528Z,5.63
2022-10-04T13:51:14.371Z,3.97
2022-10-04T13:55:26.074Z,7.35
2022-10-04T13:59:23.507Z,4.00
2022-10-04T14:03:53.358Z,6.70
2022-10-04T14:07:54.462Z,5.60
2022-10-04T14:11:51.220Z,4.95
2022-10-04T14:16:04.280Z,8.45
2022-10-04T14:20:13.571Z,3.47
2022-10-04T14:24:05.075Z,4.43
2022-10-04T14:28:24.747Z,5.05
2022-10-04T14:32:40.913Z,7.50
2022-10-04T14:36:40.950Z,7.00
2022-10-04T14:40:45.218Z,4.22
2022-10-04T14:44:54.421Z,7.22
2022-10-04T14:48:49.851Z,8.85
2022-10-04T14:52:43.698Z,4.60
2022-10-04T14:56:52.390Z,9.13
2022-10-04T15:01:01.508Z,7.30
2022-10-04T15:04:51.642Z,5.00
2022-10-04T15:08:43.075Z,4.00
2022-10-04T15:13:10.363Z,5.70
2022-10-04T15:16:58.282Z,5.82
2022-10-04T15:20:59.091Z,4.88
2022-10-04T15:24:52.209Z,7.38
2022-10-04T15:28:49.129Z,5.25
2022-10-04T15:32:46.086Z,6.68
2022-10-04T15:36:40.868Z,6.85
2022-10-04T15:40:54.487Z,6.60
2022-10-04T15:45:01.301Z,6.28
2022-10-04T15:48:52.069Z,5.68
2022-10-04T15:52:51.982Z,5.90
2022-10-04T15:56:49.238Z,4.95
2022-10-04T16:01:21.032Z,8.15
2022-10-04T16:05:15.869Z,5.22
2022-10-04T16:09:14.087Z,9.55
2022-10-04T16:13:17.769Z,9.88
2022-10-04T16:17:24.326Z,8.75
2022-10-04T16:25:25.657Z,5.93
2022-10-04T16:29:28.205Z,7.78
2022-10-04T16:33:42.246Z,5.88
2022-10-04T16:37:55.971Z,7.38
2022-10-04T16:41:55.047Z,6.93
2022-10-04T16:46:04.275Z,7.53
2022-10-04T16:49:55.378Z,8.43
2022-10-04T16:53:39.964Z,6.95
2022-10-04T16:57:22.897Z,5.20
2022-10-04T17:01:23.460Z,9.07
2022-10-04T17:05:30.172Z,7.55
2022-10-04T17:13:15.719Z,12.68
2022-10-04T17:17:04.349Z,10.13
2022-10-04T17:20:59.211Z,8.35
2022-10-04T17:25:05.092Z,6.38
2022-10-04T17:28:56.835Z,8.40
2022-10-04T17:33:08.186Z,11.10
2022-10-04T17:36:55.076Z,9.15
2022-10-04T17:41:09.467Z,9.60
2022-10-04T17:45:18.249Z,10.68
2022-10-04T17:50:00.761Z,9.93
2022-10-04T17:54:05.893Z,9.32
2022-10-04T17:58:01.961Z,7.45
2022-10-04T18:01:47.993Z,7.63
2022-10-04T18:09:42.120Z,7.53
2022-10-04T18:13:44.989Z,7.82
2022-10-04T18:17:41.232Z,11.00
2022-10-04T18:21:30.386Z,8.95
2022-10-04T18:25:16.609Z,13.23
2022-10-04T18:29:01.109Z,10.05
2022-10-04T18:32:55.874Z,9.95
2022-10-04T18:36:48.132Z,8.63
2022-10-04T18:40:34.780Z,10.90
2022-10-04T18:44:21.168Z,11.18
2022-10-04T18:48:15.083Z,7.38
2022-10-04T18:52:12.413Z,10.55
2022-10-04T18:56:00.120Z,10.68
2022-10-04T19:00:21.872Z,8.05
2022-10-04T19:04:31.650Z,8.88
2022-10-04T19:08:34.594Z,10.30
2022-10-04T19:12:22.838Z,14.18
2022-10-04T19:16:04.709Z,10.05
2022-10-04T19:19:54.266Z,10.75
2022-10-04T19:23:53.583Z,10.32
2022-10-04T19:27:55.783Z,7.80
2022-10-04T19:31:42.986Z,10.70
2022-10-04T19:35:48.454Z,4.53
2022-10-04T19:39:50.663Z,9.60
2022-10-04T19:43:45.427Z,9.40
2022-10-04T19:48:00.429Z,8.57
2022-10-04T19:51:51.043Z,5.82
2022-10-04T19:55:54.158Z,14.38
2022-10-04T19:59:50.765Z,11.70
2022-10-04T20:03:32.594Z,11.68
2022-10-04T20:07:14.887Z,7.15
2022-10-04T20:11:20.228Z,13.93
2022-10-04T20:15:17.053Z,8.23
2022-10-04T20:18:59.836Z,9.43
2022-10-04T20:22:52.046Z,6.85
2022-10-04T20:27:04.494Z,9.98
2022-10-04T20:30:54.702Z,9.30
2022-10-04T20:34:39.735Z,11.00
2022-10-04T20:38:41.529Z,13.05
2022-10-04T20:42:34.964Z,13.57
2022-10-04T20:46:27.553Z,12.80
2022-10-04T20:50:25.556Z,9.13
2022-10-04T20:54:20.335Z,10.50
2022-10-04T20:58:21.184Z,8.60
2022-10-04T21:02:10.930Z,12.73
2022-10-04T21:06:08.527Z,12.05
2022-10-04T21:09:53.372Z,6.88
2022-10-04T21:13:48.575Z,9.50
2022-10-04T21:17:30.453Z,10.98
2022-10-04T21:21:14.776Z,10.85
2022-10-04T21:24:59.313Z,10.23
2022-10-04T21:28:41.171Z,10.27
2022-10-04T21:32:24.454Z,12.25
2022-10-04T21:36:07.026Z,8.55
2022-10-04T21:39:49.216Z,11.85
2022-10-04T21:43:31.377Z,8.90
2022-10-04T21:47:13.493Z,7.13
2022-10-04T21:50:55.695Z,8.43
2022-10-04T21:54:37.961Z,10.27
2022-10-04T21:58:20.459Z,8.35
2022-10-04T22:02:02.706Z,4.40
2022-10-04T22:05:44.862Z,6.57
2022-10-04T22:09:26.707Z,7.55
2022-10-04T22:13:08.589Z,8.30
2022-10-04T22:16:51.098Z,8.15
2022-10-04T22:20:33.395Z,14.13
2022-10-04T22:24:20.626Z,8.13
2022-10-04T22:28:21.999Z,7.43
2022-10-04T22:32:19.724Z,5.50
2022-10-04T22:36:20.316Z,6.93
2022-10-04T22:40:02.345Z,9.27
2022-10-04T22:43:45.436Z,4.82
2022-10-04T22:47:28.215Z,7.65
2022-10-04T22:51:12.806Z,6.00
2022-10-04T22:54:57.908Z,5.00
2022-10-04T22:58:40.474Z,8.70
2022-10-04T23:02:26.870Z,8.43
2022-10-04T23:06:14.116Z,9.68
2022-10-04T23:09:55.942Z,8.73
2022-10-04T23:13:38.790Z,9.10
2022-10-04T23:17:27.702Z,6.88
2022-10-04T23:21:24.628Z,9.25
2022-10-04T23:25:16.948Z,7.65
2022-10-04T23:28:59.327Z,6.10
2022-10-04T23:32:43.860Z,8.25
2022-10-04T23:36:25.942Z,6.72
2022-10-04T23:40:12.866Z,8.80
2022-10-04T23:43:54.718Z,6.65
2022-10-04T23:47:37.555Z,7.60
2022-10-04T23:51:20.155Z,9.05
2022-10-04T23:55:02.723Z,5.15
2022-10-04T23:58:44.694Z,5.75
